sensor_id;sensor_type;location;lat;lon;timestamp;temperature;humidity
12125;DHT22;6126;57.908;16.490;2022-07-29T00:00:54;12.00;85.10
12125;DHT22;6126;57.908;16.490;2022-07-29T00:03:20;11.90;85.00
12125;DHT22;6126;57.908;16.490;2022-07-29T00:05:46;11.90;85.00
12125;DHT22;6126;57.908;16.490;2022-07-29T00:08:12;11.80;85.00
12125;DHT22;6126;57.908;16.490;2022-07-29T00:10:38;12.00;85.40
12125;DHT22;6126;57.908;16.490;2022-07-29T00:13:04;11.60;85.10
12125;DHT22;6126;57.908;16.490;2022-07-29T00:15:30;11.90;85.50
12125;DHT22;6126;57.908;16.490;2022-07-29T00:17:55;11.60;85.30
12125;DHT22;6126;57.908;16.490;2022-07-29T00:20:21;11.80;85.60
12125;DHT22;6126;57.908;16.490;2022-07-29T00:22:47;11.80;85.60
12125;DHT22;6126;57.908;16.490;2022-07-29T00:25:13;11.80;85.60
12125;DHT22;6126;57.908;16.490;2022-07-29T00:27:39;11.70;85.60
12125;DHT22;6126;57.908;16.490;2022-07-29T00:30:06;11.50;85.40
12125;DHT22;6126;57.908;16.490;2022-07-29T00:32:33;11.70;85.90
12125;DHT22;6126;57.908;16.490;2022-07-29T00:34:58;11.70;86.20
12125;DHT22;6126;57.908;16.490;2022-07-29T00:37:43;11.80;86.40
12125;DHT22;6126;57.908;16.490;2022-07-29T00:40:10;11.50;86.20
12125;DHT22;6126;57.908;16.490;2022-07-29T00:42:46;11.50;86.30
12125;DHT22;6126;57.908;16.490;2022-07-29T00:45:15;11.70;86.40
12125;DHT22;6126;57.908;16.490;2022-07-29T00:47:41;11.50;86.30
12125;DHT22;6126;57.908;16.490;2022-07-29T00:50:09;11.60;86.50
12125;DHT22;6126;57.908;16.490;2022-07-29T00:52:39;11.30;86.30
12125;DHT22;6126;57.908;16.490;2022-07-29T00:55:11;11.20;86.30
12125;DHT22;6126;57.908;16.490;2022-07-29T00:57:39;11.50;86.70
12125;DHT22;6126;57.908;16.490;2022-07-29T01:00:08;11.10;86.40
12125;DHT22;6126;57.908;16.490;2022-07-29T01:02:36;11.10;86.60
12125;DHT22;6126;57.908;16.490;2022-07-29T01:05:06;11.10;86.80
12125;DHT22;6126;57.908;16.490;2022-07-29T01:07:34;11.20;86.90
12125;DHT22;6126;57.908;16.490;2022-07-29T01:10:04;11.10;86.80
12125;DHT22;6126;57.908;16.490;2022-07-29T01:12:34;11.10;86.90
12125;DHT22;6126;57.908;16.490;2022-07-29T01:15:04;11.10;87.80
12125;DHT22;6126;57.908;16.490;2022-07-29T01:18:11;10.90;86.90
12125;DHT22;6126;57.908;16.490;2022-07-29T01:29:58;10.90;87.50
12125;DHT22;6126;57.908;16.490;2022-07-29T01:32:29;11.00;87.70
12125;DHT22;6126;57.908;16.490;2022-07-29T01:37:45;11.00;87.70
12125;DHT22;6126;57.908;16.490;2022-07-29T01:43:10;10.70;87.50
12125;DHT22;6126;57.908;16.490;2022-07-29T01:45:50;10.70;87.60
12125;DHT22;6126;57.908;16.490;2022-07-29T01:48:27;10.70;87.80
12125;DHT22;6126;57.908;16.490;2022-07-29T01:55:17;10.90;88.40
12125;DHT22;6126;57.908;16.490;2022-07-29T01:57:22;10.60;88.30
12125;DHT22;6126;57.908;16.490;2022-07-29T01:59:56;10.60;88.30
12125;DHT22;6126;57.908;16.490;2022-07-29T02:02:26;10.70;88.40
12125;DHT22;6126;57.908;16.490;2022-07-29T02:04:54;10.70;88.40
12125;DHT22;6126;57.908;16.490;2022-07-29T02:07:24;10.60;88.30
12125;DHT22;6126;57.908;16.490;2022-07-29T02:09:55;10.90;88.60
12125;DHT22;6126;57.908;16.490;2022-07-29T02:12:25;10.50;88.10
12125;DHT22;6126;57.908;16.490;2022-07-29T02:14:53;10.70;88.30
12125;DHT22;6126;57.908;16.490;2022-07-29T02:17:26;10.50;88.30
12125;DHT22;6126;57.908;16.490;2022-07-29T02:19:59;10.90;88.70
12125;DHT22;6126;57.908;16.490;2022-07-29T02:22:29;10.70;88.40
12125;DHT22;6126;57.908;16.490;2022-07-29T02:24:59;10.70;88.30
12125;DHT22;6126;57.908;16.490;2022-07-29T02:27:27;10.70;88.40
12125;DHT22;6126;57.908;16.490;2022-07-29T02:29:55;10.50;88.30
12125;DHT22;6126;57.908;16.490;2022-07-29T02:32:25;10.50;88.50
12125;DHT22;6126;57.908;16.490;2022-07-29T02:34:54;10.60;88.70
12125;DHT22;6126;57.908;16.490;2022-07-29T02:37:22;10.50;88.60
12125;DHT22;6126;57.908;16.490;2022-07-29T02:39:52;10.40;88.60
12125;DHT22;6126;57.908;16.490;2022-07-29T02:42:22;10.50;88.90
12125;DHT22;6126;57.908;16.490;2022-07-29T02:44:49;10.30;88.80
12125;DHT22;6126;57.908;16.490;2022-07-29T02:47:20;10.50;89.10
12125;DHT22;6126;57.908;16.490;2022-07-29T02:50:12;10.30;88.80
12125;DHT22;6126;57.908;16.490;2022-07-29T02:52:44;10.30;88.80
12125;DHT22;6126;57.908;16.490;2022-07-29T02:55:25;10.20;88.90
12125;DHT22;6126;57.908;16.490;2022-07-29T02:58:07;10.20;89.00
12125;DHT22;6126;57.908;16.490;2022-07-29T03:00:40;10.50;89.40
12125;DHT22;6126;57.908;16.490;2022-07-29T03:03:10;10.10;88.90
12125;DHT22;6126;57.908;16.490;2022-07-29T03:05:39;10.50;89.40
12125;DHT22;6126;57.908;16.490;2022-07-29T03:08:08;10.40;89.40
12125;DHT22;6126;57.908;16.490;2022-07-29T03:10:38;10.30;89.30
12125;DHT22;6126;57.908;16.490;2022-07-29T03:13:07;10.30;89.50
12125;DHT22;6126;57.908;16.490;2022-07-29T03:15:35;10.20;89.40
12125;DHT22;6126;57.908;16.490;2022-07-29T03:18:02;10.30;89.60
12125;DHT22;6126;57.908;16.490;2022-07-29T03:20:29;10.40;89.70
12125;DHT22;6126;57.908;16.490;2022-07-29T03:22:55;10.30;89.60
12125;DHT22;6126;57.908;16.490;2022-07-29T03:25:21;10.30;89.50
12125;DHT22;6126;57.908;16.490;2022-07-29T03:27:48;10.40;89.60
12125;DHT22;6126;57.908;16.490;2022-07-29T03:30:17;10.50;89.60
12125;DHT22;6126;57.908;16.490;2022-07-29T03:32:43;10.40;89.50
12125;DHT22;6126;57.908;16.490;2022-07-29T03:35:09;10.20;89.30
12125;DHT22;6126;57.908;16.490;2022-07-29T03:37:36;10.50;89.70
12125;DHT22;6126;57.908;16.490;2022-07-29T03:40:04;10.50;89.90
12125;DHT22;6126;57.908;16.490;2022-07-29T03:42:33;10.30;89.70
12125;DHT22;6126;57.908;16.490;2022-07-29T03:45:06;10.50;90.00
12125;DHT22;6126;57.908;16.490;2022-07-29T03:47:39;10.40;89.90
12125;DHT22;6126;57.908;16.490;2022-07-29T03:50:11;10.40;89.90
12125;DHT22;6126;57.908;16.490;2022-07-29T03:52:39;10.40;89.70
12125;DHT22;6126;57.908;16.490;2022-07-29T03:55:07;10.50;89.90
12125;DHT22;6126;57.908;16.490;2022-07-29T03:57:35;10.50;89.90
12125;DHT22;6126;57.908;16.490;2022-07-29T04:00:03;10.60;90.00
12125;DHT22;6126;57.908;16.490;2022-07-29T04:02:31;10.60;90.00
12125;DHT22;6126;57.908;16.490;2022-07-29T04:04:58;10.50;90.00
12125;DHT22;6126;57.908;16.490;2022-07-29T04:07:24;10.70;90.10
12125;DHT22;6126;57.908;16.490;2022-07-29T04:09:50;10.80;90.10
12125;DHT22;6126;57.908;16.490;2022-07-29T04:12:17;10.70;90.10
12125;DHT22;6126;57.908;16.490;2022-07-29T04:14:43;10.80;90.10
12125;DHT22;6126;57.908;16.490;2022-07-29T04:17:08;11.00;90.20
12125;DHT22;6126;57.908;16.490;2022-07-29T04:19:35;11.00;90.20
12125;DHT22;6126;57.908;16.490;2022-07-29T04:22:01;11.20;90.20
12125;DHT22;6126;57.908;16.490;2022-07-29T04:24:28;11.10;90.20
12125;DHT22;6126;57.908;16.490;2022-07-29T04:26:54;11.20;90.30
12125;DHT22;6126;57.908;16.490;2022-07-29T04:29:20;11.10;90.20
12125;DHT22;6126;57.908;16.490;2022-07-29T04:31:46;11.30;90.30
12125;DHT22;6126;57.908;16.490;2022-07-29T04:34:12;11.70;90.30
12125;DHT22;6126;57.908;16.490;2022-07-29T04:36:38;12.00;90.20
12125;DHT22;6126;57.908;16.490;2022-07-29T04:39:04;12.60;90.40
12125;DHT22;6126;57.908;16.490;2022-07-29T04:41:30;13.50;90.10
12125;DHT22;6126;57.908;16.490;2022-07-29T04:43:57;14.00;88.50
12125;DHT22;6126;57.908;16.490;2022-07-29T04:46:23;14.50;88.00
12125;DHT22;6126;57.908;16.490;2022-07-29T04:48:48;14.60;87.10
12125;DHT22;6126;57.908;16.490;2022-07-29T04:51:15;14.40;86.80
12125;DHT22;6126;57.908;16.490;2022-07-29T04:53:41;14.30;87.10
12125;DHT22;6126;57.908;16.490;2022-07-29T04:56:07;14.50;87.60
12125;DHT22;6126;57.908;16.490;2022-07-29T04:58:36;14.00;87.50
12125;DHT22;6126;57.908;16.490;2022-07-29T05:01:03;14.10;88.00
12125;DHT22;6126;57.908;16.490;2022-07-29T05:03:29;14.50;88.20
12125;DHT22;6126;57.908;16.490;2022-07-29T05:05:55;14.70;88.00
12125;DHT22;6126;57.908;16.490;2022-07-29T05:08:21;14.50;87.80
12125;DHT22;6126;57.908;16.490;2022-07-29T05:10:47;14.60;88.00
12125;DHT22;6126;57.908;16.490;2022-07-29T05:13:13;14.50;88.10
12125;DHT22;6126;57.908;16.490;2022-07-29T05:15:39;14.60;88.40
12125;DHT22;6126;57.908;16.490;2022-07-29T05:18:05;14.70;88.40
12125;DHT22;6126;57.908;16.490;2022-07-29T05:20:31;14.90;88.50
12125;DHT22;6126;57.908;16.490;2022-07-29T05:23:00;15.00;88.70
12125;DHT22;6126;57.908;16.490;2022-07-29T05:25:27;14.80;88.60
12125;DHT22;6126;57.908;16.490;2022-07-29T05:27:54;14.80;88.70
12125;DHT22;6126;57.908;16.490;2022-07-29T05:30:21;14.90;88.60
12125;DHT22;6126;57.908;16.490;2022-07-29T05:32:47;15.00;88.30
12125;DHT22;6126;57.908;16.490;2022-07-29T05:35:14;15.30;88.30
12125;DHT22;6126;57.908;16.490;2022-07-29T05:37:41;15.50;88.30
12125;DHT22;6126;57.908;16.490;2022-07-29T05:40:07;15.50;88.10
12125;DHT22;6126;57.908;16.490;2022-07-29T05:42:34;15.60;87.80
12125;DHT22;6126;57.908;16.490;2022-07-29T05:45:00;15.80;87.70
12125;DHT22;6126;57.908;16.490;2022-07-29T05:47:26;15.90;87.60
12125;DHT22;6126;57.908;16.490;2022-07-29T05:49:53;16.00;87.50
12125;DHT22;6126;57.908;16.490;2022-07-29T05:52:19;16.10;87.50
12125;DHT22;6126;57.908;16.490;2022-07-29T05:54:46;16.30;87.40
12125;DHT22;6126;57.908;16.490;2022-07-29T05:57:19;15.90;86.80
12125;DHT22;6126;57.908;16.490;2022-07-29T05:59:47;16.10;86.90
12125;DHT22;6126;57.908;16.490;2022-07-29T06:02:14;16.20;86.90
12125;DHT22;6126;57.908;16.490;2022-07-29T06:04:40;16.20;86.80
12125;DHT22;6126;57.908;16.490;2022-07-29T06:07:06;16.50;87.00
12125;DHT22;6126;57.908;16.490;2022-07-29T06:09:33;16.40;86.80
12125;DHT22;6126;57.908;16.490;2022-07-29T06:12:00;16.50;86.90
12125;DHT22;6126;57.908;16.490;2022-07-29T06:14:26;16.40;86.60
12125;DHT22;6126;57.908;16.490;2022-07-29T06:16:54;16.50;86.70
12125;DHT22;6126;57.908;16.490;2022-07-29T06:19:20;16.60;86.60
12125;DHT22;6126;57.908;16.490;2022-07-29T06:21:46;16.50;86.30
12125;DHT22;6126;57.908;16.490;2022-07-29T06:24:14;16.90;86.40
12125;DHT22;6126;57.908;16.490;2022-07-29T06:26:41;16.80;86.20
12125;DHT22;6126;57.908;16.490;2022-07-29T06:29:08;16.70;86.00
12125;DHT22;6126;57.908;16.490;2022-07-29T06:31:36;17.10;86.20
12125;DHT22;6126;57.908;16.490;2022-07-29T06:34:03;16.90;85.80
12125;DHT22;6126;57.908;16.490;2022-07-29T06:36:30;17.20;86.00
12125;DHT22;6126;57.908;16.490;2022-07-29T06:38:56;17.10;85.90
12125;DHT22;6126;57.908;16.490;2022-07-29T06:41:22;17.30;85.90
12125;DHT22;6126;57.908;16.490;2022-07-29T06:43:49;17.20;85.70
12125;DHT22;6126;57.908;16.490;2022-07-29T06:46:17;17.00;85.30
12125;DHT22;6126;57.908;16.490;2022-07-29T06:48:45;17.20;85.40
12125;DHT22;6126;57.908;16.490;2022-07-29T06:51:11;17.40;85.40
12125;DHT22;6126;57.908;16.490;2022-07-29T06:53:38;17.60;85.40
12125;DHT22;6126;57.908;16.490;2022-07-29T06:56:06;17.50;85.00
12125;DHT22;6126;57.908;16.490;2022-07-29T06:58:34;17.60;84.80
12125;DHT22;6126;57.908;16.490;2022-07-29T07:01:03;17.70;84.60
12125;DHT22;6126;57.908;16.490;2022-07-29T07:03:30;17.90;84.60
12125;DHT22;6126;57.908;16.490;2022-07-29T07:05:57;17.80;84.30
12125;DHT22;6126;57.908;16.490;2022-07-29T07:08:23;17.80;84.00
12125;DHT22;6126;57.908;16.490;2022-07-29T07:10:51;17.90;84.00
12125;DHT22;6126;57.908;16.490;2022-07-29T07:13:18;18.00;83.80
12125;DHT22;6126;57.908;16.490;2022-07-29T07:15:44;18.10;83.60
12125;DHT22;6126;57.908;16.490;2022-07-29T07:18:13;18.20;83.40
12125;DHT22;6126;57.908;16.490;2022-07-29T07:20:41;18.30;83.10
12125;DHT22;6126;57.908;16.490;2022-07-29T07:23:07;18.30;82.70
12125;DHT22;6126;57.908;16.490;2022-07-29T07:25:33;18.40;82.50
12125;DHT22;6126;57.908;16.490;2022-07-29T07:27:59;18.60;82.20
12125;DHT22;6126;57.908;16.490;2022-07-29T07:30:25;18.60;81.80
12125;DHT22;6126;57.908;16.490;2022-07-29T07:32:52;18.70;81.50
12125;DHT22;6126;57.908;16.490;2022-07-29T07:35:18;18.80;81.30
12125;DHT22;6126;57.908;16.490;2022-07-29T07:37:45;18.90;81.10
12125;DHT22;6126;57.908;16.490;2022-07-29T07:40:12;19.00;80.80
12125;DHT22;6126;57.908;16.490;2022-07-29T07:42:40;19.10;80.40
12125;DHT22;6126;57.908;16.490;2022-07-29T07:45:07;19.20;80.10
12125;DHT22;6126;57.908;16.490;2022-07-29T07:47:35;19.30;80.00
12125;DHT22;6126;57.908;16.490;2022-07-29T07:50:04;19.40;79.80
12125;DHT22;6126;57.908;16.490;2022-07-29T07:52:34;19.50;79.50
12125;DHT22;6126;57.908;16.490;2022-07-29T07:55:00;19.60;79.10
12125;DHT22;6126;57.908;16.490;2022-07-29T07:57:26;19.70;78.70
12125;DHT22;6126;57.908;16.490;2022-07-29T07:59:52;19.90;78.50
12125;DHT22;6126;57.908;16.490;2022-07-29T08:02:18;20.00;77.90
12125;DHT22;6126;57.908;16.490;2022-07-29T08:04:44;20.10;77.60
12125;DHT22;6126;57.908;16.490;2022-07-29T08:07:10;20.20;77.20
12125;DHT22;6126;57.908;16.490;2022-07-29T08:09:36;20.40;76.90
12125;DHT22;6126;57.908;16.490;2022-07-29T08:12:02;20.50;76.60
12125;DHT22;6126;57.908;16.490;2022-07-29T08:14:30;20.60;76.20
12125;DHT22;6126;57.908;16.490;2022-07-29T08:16:56;20.80;75.90
12125;DHT22;6126;57.908;16.490;2022-07-29T08:19:23;20.90;75.60
12125;DHT22;6126;57.908;16.490;2022-07-29T08:21:49;21.10;75.30
12125;DHT22;6126;57.908;16.490;2022-07-29T08:24:15;21.20;74.80
12125;DHT22;6126;57.908;16.490;2022-07-29T08:26:59;21.40;74.50
12125;DHT22;6126;57.908;16.490;2022-07-29T08:29:25;21.50;74.30
12125;DHT22;6126;57.908;16.490;2022-07-29T08:31:51;21.60;74.00
12125;DHT22;6126;57.908;16.490;2022-07-29T08:34:17;21.70;73.70
12125;DHT22;6126;57.908;16.490;2022-07-29T08:36:42;21.90;73.40
12125;DHT22;6126;57.908;16.490;2022-07-29T08:39:08;22.00;73.10
12125;DHT22;6126;57.908;16.490;2022-07-29T08:41:35;22.10;72.80
12125;DHT22;6126;57.908;16.490;2022-07-29T08:44:01;22.20;72.50
12125;DHT22;6126;57.908;16.490;2022-07-29T08:46:28;22.30;72.20
12125;DHT22;6126;57.908;16.490;2022-07-29T08:48:55;22.20;71.80
12125;DHT22;6126;57.908;16.490;2022-07-29T08:51:21;22.00;72.00
12125;DHT22;6126;57.908;16.490;2022-07-29T08:53:49;21.90;72.20
12125;DHT22;6126;57.908;16.490;2022-07-29T08:56:17;22.00;72.20
12125;DHT22;6126;57.908;16.490;2022-07-29T08:58:48;22.00;71.70
12125;DHT22;6126;57.908;16.490;2022-07-29T09:01:21;22.10;71.60
12125;DHT22;6126;57.908;16.490;2022-07-29T09:03:48;22.20;71.20
12125;DHT22;6126;57.908;16.490;2022-07-29T09:06:17;22.20;71.00
12125;DHT22;6126;57.908;16.490;2022-07-29T09:08:45;22.40;70.80
12125;DHT22;6126;57.908;16.490;2022-07-29T09:11:13;22.50;70.30
12125;DHT22;6126;57.908;16.490;2022-07-29T09:13:39;22.60;69.90
12125;DHT22;6126;57.908;16.490;2022-07-29T09:16:06;22.60;69.70
12125;DHT22;6126;57.908;16.490;2022-07-29T09:21:15;22.40;69.50
12125;DHT22;6126;57.908;16.490;2022-07-29T09:24:08;22.10;69.80
12125;DHT22;6126;57.908;16.490;2022-07-29T09:26:38;22.00;70.10
12125;DHT22;6126;57.908;16.490;2022-07-29T09:29:17;22.00;70.00
12125;DHT22;6126;57.908;16.490;2022-07-29T09:31:47;22.00;69.70
12125;DHT22;6126;57.908;16.490;2022-07-29T09:34:20;21.90;69.80
12125;DHT22;6126;57.908;16.490;2022-07-29T09:36:52;21.80;70.00
12125;DHT22;6126;57.908;16.490;2022-07-29T09:39:30;21.70;69.70
12125;DHT22;6126;57.908;16.490;2022-07-29T09:42:00;21.80;69.80
12125;DHT22;6126;57.908;16.490;2022-07-29T09:44:47;21.90;69.60
12125;DHT22;6126;57.908;16.490;2022-07-29T09:47:18;22.00;69.10
12125;DHT22;6126;57.908;16.490;2022-07-29T09:49:52;22.00;68.90
12125;DHT22;6126;57.908;16.490;2022-07-29T09:52:18;21.90;69.00
12125;DHT22;6126;57.908;16.490;2022-07-29T09:54:45;21.70;69.10
12125;DHT22;6126;57.908;16.490;2022-07-29T09:57:28;21.60;69.30
12125;DHT22;6126;57.908;16.490;2022-07-29T10:00:03;21.50;69.50
12125;DHT22;6126;57.908;16.490;2022-07-29T10:02:36;21.30;69.50
12125;DHT22;6126;57.908;16.490;2022-07-29T10:05:37;21.30;69.70
12125;DHT22;6126;57.908;16.490;2022-07-29T10:07:57;21.20;69.70
12125;DHT22;6126;57.908;16.490;2022-07-29T10:10:33;21.20;69.90
12125;DHT22;6126;57.908;16.490;2022-07-29T10:13:06;21.20;69.60
12125;DHT22;6126;57.908;16.490;2022-07-29T10:15:36;21.20;69.50
12125;DHT22;6126;57.908;16.490;2022-07-29T10:18:06;21.10;69.50
12125;DHT22;6126;57.908;16.490;2022-07-29T10:20:34;21.00;69.70
12125;DHT22;6126;57.908;16.490;2022-07-29T10:23:01;21.00;69.90
12125;DHT22;6126;57.908;16.490;2022-07-29T10:25:27;21.20;69.60
12125;DHT22;6126;57.908;16.490;2022-07-29T10:27:53;21.40;69.10
12125;DHT22;6126;57.908;16.490;2022-07-29T10:30:22;21.70;68.50
12125;DHT22;6126;57.908;16.490;2022-07-29T10:39:03;22.40;67.20
12125;DHT22;6126;57.908;16.490;2022-07-29T10:42:10;22.50;66.60
12125;DHT22;6126;57.908;16.490;2022-07-29T10:44:42;22.80;66.20
12125;DHT22;6126;57.908;16.490;2022-07-29T10:47:26;22.90;65.90
12125;DHT22;6126;57.908;16.490;2022-07-29T10:50:00;23.00;65.50
12125;DHT22;6126;57.908;16.490;2022-07-29T10:55:36;23.10;65.10
12125;DHT22;6126;57.908;16.490;2022-07-29T10:58:22;23.10;64.90
12125;DHT22;6126;57.908;16.490;2022-07-29T11:00:53;23.20;64.70
12125;DHT22;6126;57.908;16.490;2022-07-29T11:06:14;23.20;64.40
12125;DHT22;6126;57.908;16.490;2022-07-29T11:08:40;23.20;64.30
12125;DHT22;6126;57.908;16.490;2022-07-29T11:13:45;23.30;64.10
12125;DHT22;6126;57.908;16.490;2022-07-29T11:16:14;23.30;63.80
12125;DHT22;6126;57.908;16.490;2022-07-29T11:21:39;23.40;63.60
12125;DHT22;6126;57.908;16.490;2022-07-29T11:24:29;23.50;63.40
12125;DHT22;6126;57.908;16.490;2022-07-29T11:27:14;23.50;63.30
12125;DHT22;6126;57.908;16.490;2022-07-29T11:29:49;23.50;63.20
12125;DHT22;6126;57.908;16.490;2022-07-29T11:32:17;23.40;63.20
12125;DHT22;6126;57.908;16.490;2022-07-29T11:34:47;23.30;63.20
12125;DHT22;6126;57.908;16.490;2022-07-29T11:37:15;23.30;63.20
12125;DHT22;6126;57.908;16.490;2022-07-29T11:39:45;23.20;63.00
12125;DHT22;6126;57.908;16.490;2022-07-29T11:44:57;23.20;63.00
12125;DHT22;6126;57.908;16.490;2022-07-29T11:47:27;23.30;62.90
12125;DHT22;6126;57.908;16.490;2022-07-29T11:49:56;23.30;62.80
12125;DHT22;6126;57.908;16.490;2022-07-29T11:52:23;23.20;62.80
12125;DHT22;6126;57.908;16.490;2022-07-29T11:55:04;23.20;62.90
12125;DHT22;6126;57.908;16.490;2022-07-29T11:57:32;23.10;63.00
12125;DHT22;6126;57.908;16.490;2022-07-29T12:00:00;23.10;63.00
12125;DHT22;6126;57.908;16.490;2022-07-29T12:02:38;23.10;63.10
12125;DHT22;6126;57.908;16.490;2022-07-29T12:05:09;23.10;63.20
12125;DHT22;6126;57.908;16.490;2022-07-29T12:07:36;23.10;63.20
12125;DHT22;6126;57.908;16.490;2022-07-29T12:10:04;23.10;63.20
12125;DHT22;6126;57.908;16.490;2022-07-29T12:12:32;23.10;63.10
12125;DHT22;6126;57.908;16.490;2022-07-29T12:15:11;23.20;63.10
12125;DHT22;6126;57.908;16.490;2022-07-29T12:17:37;23.20;63.00
12125;DHT22;6126;57.908;16.490;2022-07-29T12:20:04;23.20;63.00
12125;DHT22;6126;57.908;16.490;2022-07-29T12:22:33;23.10;63.00
12125;DHT22;6126;57.908;16.490;2022-07-29T12:25:11;23.10;63.00
12125;DHT22;6126;57.908;16.490;2022-07-29T12:27:41;23.10;63.10
12125;DHT22;6126;57.908;16.490;2022-07-29T12:30:11;23.10;64.00
12125;DHT22;6126;57.908;16.490;2022-07-29T12:32:47;23.10;63.20
12125;DHT22;6126;57.908;16.490;2022-07-29T12:35:17;23.00;63.20
12125;DHT22;6126;57.908;16.490;2022-07-29T12:37:45;23.10;63.20
12125;DHT22;6126;57.908;16.490;2022-07-29T12:40:15;23.00;63.20
12125;DHT22;6126;57.908;16.490;2022-07-29T12:43:12;23.00;63.10
12125;DHT22;6126;57.908;16.490;2022-07-29T12:45:43;23.00;63.20
12125;DHT22;6126;57.908;16.490;2022-07-29T12:48:12;23.00;63.10
12125;DHT22;6126;57.908;16.490;2022-07-29T12:50:59;23.00;63.10
12125;DHT22;6126;57.908;16.490;2022-07-29T12:53:27;23.00;63.20
12125;DHT22;6126;57.908;16.490;2022-07-29T12:55:55;23.00;63.20
12125;DHT22;6126;57.908;16.490;2022-07-29T13:01:01;23.00;63.10
12125;DHT22;6126;57.908;16.490;2022-07-29T13:03:40;23.10;63.20
12125;DHT22;6126;57.908;16.490;2022-07-29T13:09:08;23.10;63.10
12125;DHT22;6126;57.908;16.490;2022-07-29T13:11:39;23.10;62.90
12125;DHT22;6126;57.908;16.490;2022-07-29T13:14:37;23.10;62.80
12125;DHT22;6126;57.908;16.490;2022-07-29T13:17:10;23.10;62.80
12125;DHT22;6126;57.908;16.490;2022-07-29T13:19:48;23.10;62.80
12125;DHT22;6126;57.908;16.490;2022-07-29T13:22:22;23.10;62.70
12125;DHT22;6126;57.908;16.490;2022-07-29T13:27:18;23.20;62.70
12125;DHT22;6126;57.908;16.490;2022-07-29T13:29:44;23.10;62.50
12125;DHT22;6126;57.908;16.490;2022-07-29T13:32:12;23.10;62.50
12125;DHT22;6126;57.908;16.490;2022-07-29T13:34:39;23.10;62.60
12125;DHT22;6126;57.908;16.490;2022-07-29T13:37:06;23.10;62.60
12125;DHT22;6126;57.908;16.490;2022-07-29T13:39:32;23.00;62.50
12125;DHT22;6126;57.908;16.490;2022-07-29T13:41:58;23.00;62.50
12125;DHT22;6126;57.908;16.490;2022-07-29T13:44:23;23.00;62.70
12125;DHT22;6126;57.908;16.490;2022-07-29T13:46:49;23.00;62.60
12125;DHT22;6126;57.908;16.490;2022-07-29T13:49:16;22.90;62.50
12125;DHT22;6126;57.908;16.490;2022-07-29T13:51:42;22.90;62.50
12125;DHT22;6126;57.908;16.490;2022-07-29T13:54:08;22.90;62.50
12125;DHT22;6126;57.908;16.490;2022-07-29T13:56:34;22.80;62.40
12125;DHT22;6126;57.908;16.490;2022-07-29T13:59:00;22.80;63.20
12125;DHT22;6126;57.908;16.490;2022-07-29T14:01:26;22.80;62.20
12125;DHT22;6126;57.908;16.490;2022-07-29T14:03:53;22.80;62.10
12125;DHT22;6126;57.908;16.490;2022-07-29T14:06:18;22.80;62.00
12125;DHT22;6126;57.908;16.490;2022-07-29T14:08:44;22.80;61.90
12125;DHT22;6126;57.908;16.490;2022-07-29T14:11:10;22.80;61.90
12125;DHT22;6126;57.908;16.490;2022-07-29T14:13:36;22.70;61.60
12125;DHT22;6126;57.908;16.490;2022-07-29T14:16:02;22.70;61.60
12125;DHT22;6126;57.908;16.490;2022-07-29T14:18:28;22.70;61.70
12125;DHT22;6126;57.908;16.490;2022-07-29T14:20:54;22.70;61.70
12125;DHT22;6126;57.908;16.490;2022-07-29T14:23:20;22.70;61.70
12125;DHT22;6126;57.908;16.490;2022-07-29T14:25:46;22.60;62.40
12125;DHT22;6126;57.908;16.490;2022-07-29T14:28:11;22.60;61.60
12125;DHT22;6126;57.908;16.490;2022-07-29T14:30:38;22.60;61.60
12125;DHT22;6126;57.908;16.490;2022-07-29T14:33:04;22.50;61.50
12125;DHT22;6126;57.908;16.490;2022-07-29T14:35:30;22.60;61.70
12125;DHT22;6126;57.908;16.490;2022-07-29T14:37:55;22.60;61.60
12125;DHT22;6126;57.908;16.490;2022-07-29T14:40:22;22.50;61.50
12125;DHT22;6126;57.908;16.490;2022-07-29T14:42:48;22.50;61.60
12125;DHT22;6126;57.908;16.490;2022-07-29T14:45:14;22.50;61.50
12125;DHT22;6126;57.908;16.490;2022-07-29T14:47:40;22.50;61.50
12125;DHT22;6126;57.908;16.490;2022-07-29T14:50:07;22.50;61.50
12125;DHT22;6126;57.908;16.490;2022-07-29T14:52:34;22.50;61.60
12125;DHT22;6126;57.908;16.490;2022-07-29T14:55:00;22.40;61.50
12125;DHT22;6126;57.908;16.490;2022-07-29T14:57:26;22.40;61.60
12125;DHT22;6126;57.908;16.490;2022-07-29T14:59:52;22.40;61.60
12125;DHT22;6126;57.908;16.490;2022-07-29T15:02:18;22.40;61.70
12125;DHT22;6126;57.908;16.490;2022-07-29T15:04:44;22.40;61.80
12125;DHT22;6126;57.908;16.490;2022-07-29T15:07:11;22.30;61.90
12125;DHT22;6126;57.908;16.490;2022-07-29T15:09:37;22.40;62.90
12125;DHT22;6126;57.908;16.490;2022-07-29T15:12:03;22.30;62.20
12125;DHT22;6126;57.908;16.490;2022-07-29T15:14:30;22.30;62.30
12125;DHT22;6126;57.908;16.490;2022-07-29T15:16:57;22.30;62.40
12125;DHT22;6126;57.908;16.490;2022-07-29T15:19:23;22.20;62.60
12125;DHT22;6126;57.908;16.490;2022-07-29T15:21:49;22.20;62.80
12125;DHT22;6126;57.908;16.490;2022-07-29T15:24:19;22.10;63.00
12125;DHT22;6126;57.908;16.490;2022-07-29T15:26:45;22.00;63.10
12125;DHT22;6126;57.908;16.490;2022-07-29T15:29:12;22.00;63.30
12125;DHT22;6126;57.908;16.490;2022-07-29T15:31:39;21.90;63.40
12125;DHT22;6126;57.908;16.490;2022-07-29T15:34:05;21.90;63.50
12125;DHT22;6126;57.908;16.490;2022-07-29T15:36:31;21.80;63.40
12125;DHT22;6126;57.908;16.490;2022-07-29T15:38:57;21.80;63.60
12125;DHT22;6126;57.908;16.490;2022-07-29T15:41:23;21.70;63.40
12125;DHT22;6126;57.908;16.490;2022-07-29T15:43:49;21.70;63.40
12125;DHT22;6126;57.908;16.490;2022-07-29T15:46:18;21.70;63.40
12125;DHT22;6126;57.908;16.490;2022-07-29T15:49:04;21.70;63.30
12125;DHT22;6126;57.908;16.490;2022-07-29T15:51:31;21.60;63.10
12125;DHT22;6126;57.908;16.490;2022-07-29T15:53:59;21.70;63.30
12125;DHT22;6126;57.908;16.490;2022-07-29T15:56:27;21.60;63.10
12125;DHT22;6126;57.908;16.490;2022-07-29T15:58:52;21.60;63.00
12125;DHT22;6126;57.908;16.490;2022-07-29T16:01:18;21.60;62.90
12125;DHT22;6126;57.908;16.490;2022-07-29T16:03:44;21.60;62.70
12125;DHT22;6126;57.908;16.490;2022-07-29T16:06:11;21.60;62.50
12125;DHT22;6126;57.908;16.490;2022-07-29T16:08:37;21.60;62.40
12125;DHT22;6126;57.908;16.490;2022-07-29T16:11:03;21.50;62.20
12125;DHT22;6126;57.908;16.490;2022-07-29T16:13:29;21.50;62.20
12125;DHT22;6126;57.908;16.490;2022-07-29T16:15:55;21.50;62.10
12125;DHT22;6126;57.908;16.490;2022-07-29T16:18:20;21.50;62.00
12125;DHT22;6126;57.908;16.490;2022-07-29T16:20:46;21.50;62.00
12125;DHT22;6126;57.908;16.490;2022-07-29T16:23:12;21.50;61.80
12125;DHT22;6126;57.908;16.490;2022-07-29T16:25:38;21.60;61.80
12125;DHT22;6126;57.908;16.490;2022-07-29T16:28:05;21.50;61.60
12125;DHT22;6126;57.908;16.490;2022-07-29T16:30:31;21.50;61.60